Portada
METAR-TAF:

METAR-TAF

Aeropuertos :

Base Aérea de Armilla

Granada, España

latitud: 37-08N, longitud: 003-38-08W, altitud: 700 m

Observación

El informe se hizo hace 10 horas y 59 minutos, a las 17:00 UTC
Viento 4 kt del norte-noroeste
Temperatura 16°C
Humedad 45%
Presión 1012 hPa
Visibilidad 10 km o más
Cielo nuboso a una altura de 9000 ft

METAR: LEGA 151700Z 34004KT 9999 BKN090 16/04 Q1012

Hora: 05:59 (03:59 UTC)

Pronóstico

El informe se hizo hace 13 horas y 59 minutos, a las 14:00 UTC
Pronóstico válido del 15 a las 15 UTC al 15 a las 24 UTC
Viento 4 kt con dirección variable
Visibilidad 10 km o más
Nubes dispersas a una altura de 3500 ft
Temporalmente
del 15 a las 18 UTC al 15 a las 24 UTC
Visibilidad: 3000 m
Cielo nuboso a una altura de 1400 ft
lluvia

TAF: LEGA 151400Z 1515/1524 VRB04KT 9999 SCT035 TEMPO 1518/1524 3000 RA BKN014

Observaciones y pronósticos meteorológicos de más de 4000 aeropuertos (mensajes METAR y TAF).

Los puntos amarillos y rojos representan las estaciones disponibles.

Ponga el ratón en el punto deseado para ver el nombre de la estación.

Haga clic para ver las observaciones y los pronósticos meteorológicos.

Para cambiar el mapa : haga clic en los botones verdes con una cruz de color negro para hacer un zoom, en el botón verde con un guión para alejar o en las flechas verdes para mapas adyacentes.


METAR-TAF: